Terminal Aerodrome Forecast
Issued by NWS Memphis, TN

Home | Current Version | Previous Version | Text Only | Print | Product List | Glossary On
Versions: 1 2 3 4 5 6 7 8 9 10 11 12 13 14 15 16 17
000
FTUS44 KMEG 282321
TAFMKL
TAF
KMKL 282321Z 2900/2924 23007KT P6SM SCT030 BKN250
     FM290600 00000KT 5SM BR FEW008 BKN250
      TEMPO 2907/2910 3SM BR BKN008
     FM291000 00000KT 2SM BR OVC005
     FM291500 22005KT P6SM VCSH BKN015 BKN025
     FM292000 24007KT P6SM SCT025 BKN035=

USA.gov is the U.S. government's official web portal to all federal, state and local government web resources and services.